Time;durP1;ratioP1;P1;durP2;ratioP2;P2;SDS_P1;SDS_P2;PMS_P1;PMS_P2;Temp;Humidity;BMP_temperature;BMP_pressure;BME280_temperature;BME280_humidity;BME280_pressure;Samples;Min_cycle;Max_cycle;Signal;HPM_P1;HPM_P2
2024/01/10 00:00:12;;;;;;;15.70;12.00;;;;;;;-3.93;100.00;103253.88;5035634;28;20203;-68
2024/01/10 00:02:38;;;;;;;18.07;12.93;;;;;;;-4.15;100.00;103214.31;5063924;28;20230;-67
2024/01/10 00:05:04;;;;;;;20.30;13.23;;;;;;;-4.24;100.00;103154.31;5038972;28;20192;-69
2024/01/10 00:07:29;;;;;;;19.83;14.40;;;;;;;-4.29;100.00;103192.91;5044076;28;20722;-67
2024/01/10 00:09:55;;;;;;;18.00;13.03;;;;;;;-4.33;100.00;103169.41;5045731;28;20435;-68
2024/01/10 00:12:21;;;;;;;18.70;13.87;;;;;;;-3.79;100.00;103221.97;5036711;28;20185;-67
2024/01/10 00:14:46;;;;;;;20.23;13.60;;;;;;;-3.94;100.00;103241.66;5036773;28;20474;-68
2024/01/10 00:17:12;;;;;;;22.00;14.07;;;;;;;-4.01;100.00;103196.41;5035171;28;20198;-68
2024/01/10 00:19:37;;;;;;;18.80;13.17;;;;;;;-4.17;100.00;103175.03;5032685;28;20906;-69
2024/01/10 00:22:03;;;;;;;18.47;13.37;;;;;;;-4.42;100.00;103167.06;5039483;28;20270;-68
2024/01/10 00:24:28;;;;;;;18.53;13.67;;;;;;;-4.52;100.00;103133.31;5033875;28;20176;-68
2024/01/10 00:26:55;;;;;;;20.00;13.40;;;;;;;-4.28;100.00;103207.72;5037525;28;20188;-68
2024/01/10 00:29:20;;;;;;;17.80;13.57;;;;;;;-3.93;100.00;103253.88;5041031;28;21758;-68
2024/01/10 00:31:46;;;;;;;18.87;13.67;;;;;;;-4.38;100.00;103179.16;5039700;28;21153;-68
2024/01/10 00:34:11;;;;;;;18.10;13.13;;;;;;;-4.42;100.00;103135.63;5042218;28;20208;-69
2024/01/10 00:36:37;;;;;;;20.47;13.43;;;;;;;-4.42;100.00;103160.97;5038341;28;20199;-69
2024/01/10 00:39:02;;;;;;;22.90;15.27;;;;;;;-4.82;100.00;103100.13;5037341;28;20207;-67
2024/01/10 00:41:30;;;;;;;19.20;14.50;;;;;;;-4.11;100.00;103153.03;5036156;28;20214;-68
2024/01/10 00:43:55;;;;;;;19.88;15.23;;;;;;;-3.77;100.00;103236.75;5026415;28;20192;-68
2024/01/10 00:46:21;;;;;;;19.63;14.03;;;;;;;-3.97;100.00;103239.13;5040185;28;20915;-68
2024/01/10 00:48:46;;;;;;;20.43;14.77;;;;;;;-3.83;100.00;103246.59;5030697;28;20291;-68
2024/01/10 00:51:12;;;;;;;20.87;16.20;;;;;;;-4.09;100.00;103199.25;5032575;28;20305;-68
2024/01/10 00:53:40;;;;;;;26.23;15.67;;;;;;;-3.83;100.00;103246.59;5030916;28;20207;-68
2024/01/10 00:56:06;;;;;;;20.05;15.38;;;;;;;-4.40;100.00;103153.91;5031120;28;20202;-69
2024/01/10 00:58:32;;;;;;;18.20;14.93;;;;;;;-4.46;100.00;103122.66;5067093;28;20199;-68
2024/01/10 01:00:57;;;;;;;19.77;15.07;;;;;;;-4.17;100.00;103172.41;5035498;28;20495;-68
2024/01/10 01:03:23;;;;;;;19.03;15.17;;;;;;;-4.67;100.00;103063.91;5047739;28;20185;-69
2024/01/10 01:05:48;;;;;;;19.63;14.97;;;;;;;-4.26;100.00;103153.50;5052417;28;20192;-69
2024/01/10 01:08:13;;;;;;;22.40;14.87;;;;;;;-3.97;100.00;103160.47;5038465;28;20214;-68
2024/01/10 01:10:39;;;;;;;19.80;14.77;;;;;;;-4.37;100.00;103141.59;5043330;28;20191;-68
2024/01/10 01:13:04;;;;;;;18.83;14.63;;;;;;;-4.04;100.00;103193.91;5038344;28;20319;-68
2024/01/10 01:15:30;;;;;;;20.13;15.47;;;;;;;-4.58;100.00;103116.00;5064772;28;20177;-68
2024/01/10 01:17:55;;;;;;;19.53;13.90;;;;;;;-4.35;100.00;103138.91;5040283;28;20211;-67
2024/01/10 01:20:21;;;;;;;21.60;15.40;;;;;;;-4.17;100.00;103145.34;5036264;28;20200;-68
2024/01/10 01:22:46;;;;;;;20.80;14.93;;;;;;;-4.25;100.00;103119.41;5036292;28;20222;-68
2024/01/10 01:25:12;;;;;;;19.90;14.80;;;;;;;-4.05;100.00;103137.13;5033806;28;20191;-68
2024/01/10 01:27:37;;;;;;;18.87;14.20;;;;;;;-4.15;100.00;103123.44;5038190;28;20239;-68
2024/01/10 01:30:03;;;;;;;19.43;14.80;;;;;;;-4.79;100.00;102992.69;5032610;28;20190;-68
2024/01/10 01:32:28;;;;;;;22.00;14.17;;;;;;;-4.21;100.00;103114.91;5036649;28;20197;-68
2024/01/10 01:34:54;;;;;;;20.70;15.07;;;;;;;-4.19;100.00;103039.75;5035801;28;20442;-68
2024/01/10 01:37:19;;;;;;;21.30;16.43;;;;;;;-4.43;100.00;103029.09;5040106;28;20305;-67
2024/01/10 01:39:47;;;;;;;20.03;15.20;;;;;;;-4.12;100.00;103102.38;5034216;28;20196;-67
2024/01/10 01:42:12;;;;;;;19.40;15.13;;;;;;;-4.11;100.00;103109.34;5040754;28;20188;-68
2024/01/10 01:44:38;;;;;;;23.50;15.20;;;;;;;-4.20;100.00;103093.88;5038099;28;20448;-68
2024/01/10 01:47:03;;;;;;;20.33;13.97;;;;;;;-4.26;100.00;103048.69;5034749;28;20190;-68
2024/01/10 01:49:29;;;;;;;25.03;15.90;;;;;;;-4.19;100.00;103085.13;5035648;28;20298;-68
2024/01/10 01:51:55;;;;;;;17.93;12.90;;;;;;;-4.27;100.00;103083.66;5037115;28;20566;-68
2024/01/10 01:54:21;;;;;;;20.90;15.10;;;;;;;-3.91;100.00;103128.81;5033570;28;20725;-68
2024/01/10 01:56:47;;;;;;;20.03;15.30;;;;;;;-4.51;100.00;103015.41;5066441;28;20456;-67
2024/01/10 01:59:13;;;;;;;20.10;14.50;;;;;;;-4.33;100.00;103087.34;5026397;28;20446;-68
2024/01/10 02:01:40;;;;;;;19.53;14.40;;;;;;;-4.32;100.00;103068.06;5036067;28;20461;-68
2024/01/10 02:04:05;;;;;;;21.90;14.40;;;;;;;-4.04;100.00;103082.94;5035688;28;20180;-68
2024/01/10 02:06:31;;;;;;;20.63;14.00;;;;;;;-4.34;100.00;102999.13;5065455;28;20199;-68
2024/01/10 02:08:59;;;;;;;21.90;15.20;;;;;;;-4.03;100.00;103042.69;5037356;28;20210;-69
2024/01/10 02:11:26;;;;;;;20.37;14.63;;;;;;;-4.40;100.00;102966.13;5032542;28;20187;-68
2024/01/10 02:13:54;;;;;;;18.30;14.50;;;;;;;-4.00;100.00;103017.25;5040223;28;20483;-68
2024/01/10 02:16:20;;;;;;;21.87;13.83;;;;;;;-4.81;100.00;102905.47;5037215;28;20442;-68
2024/01/10 02:18:46;;;;;;;19.33;13.60;;;;;;;-3.80;100.00;103037.53;5035950;28;20459;-68
2024/01/10 02:21:11;;;;;;;19.37;14.50;;;;;;;-4.92;100.00;102849.97;5070115;28;20438;-68
2024/01/10 02:23:36;;;;;;;22.07;14.90;;;;;;;-3.87;100.00;103013.31;5042077;28;20191;-68
2024/01/10 02:26:02;;;;;;;17.07;13.53;;;;;;;-4.68;100.00;102908.56;5040893;28;20222;-68
2024/01/10 02:28:28;;;;;;;19.53;13.83;;;;;;;-4.81;100.00;102878.44;5039714;28;20192;-68
2024/01/10 02:30:55;;;;;;;20.43;14.83;;;;;;;-4.55;100.00;102916.88;5037543;28;20210;-68
2024/01/10 02:33:20;;;;;;;19.67;14.30;;;;;;;-4.34;100.00;102945.00;5040858;28;20225;-68
2024/01/10 02:35:46;;;;;;;19.90;14.33;;;;;;;-4.02;100.00;102971.00;5032778;28;21270;-68
2024/01/10 02:38:11;;;;;;;18.83;15.03;;;;;;;-3.83;100.00;103031.56;5040457;28;21134;-68
2024/01/10 02:40:37;;;;;;;20.17;15.60;;;;;;;-4.00;100.00;103022.47;5044057;28;20230;-68
2024/01/10 02:43:02;;;;;;;22.17;15.33;;;;;;;-3.95;100.00;103046.78;5035130;28;20208;-68
2024/01/10 02:45:28;;;;;;;20.47;13.13;;;;;;;-4.22;100.00;103014.47;5042389;28;20195;-68
2024/01/10 02:47:53;;;;;;;21.43;14.90;;;;;;;-4.04;100.00;103052.34;5040596;28;20192;-68
2024/01/10 02:50:19;;;;;;;19.53;14.80;;;;;;;-4.61;100.00;102938.00;5036004;28;20184;-68
2024/01/10 02:52:44;;;;;;;23.37;15.90;;;;;;;-4.70;100.00;102896.41;5040102;28;20184;-69
2024/01/10 02:55:10;;;;;;;19.37;14.60;;;;;;;-3.94;100.00;103082.56;5071377;28;20246;-68
2024/01/10 02:57:35;;;;;;;23.57;15.03;;;;;;;-4.26;100.00;103051.31;5040336;28;20203;-69
2024/01/10 03:00:01;;;;;;;22.87;17.17;;;;;;;-3.96;100.00;103084.41;5041829;28;20188;-68
2024/01/10 03:02:26;;;;;;;20.67;15.20;;;;;;;-4.23;100.00;103044.19;5063056;28;20183;-68
2024/01/10 03:04:52;;;;;;;20.03;14.13;;;;;;;-3.97;100.00;103113.28;5036648;28;20191;-68
2024/01/10 03:07:17;;;;;;;19.07;14.80;;;;;;;-4.56;100.00;103022.53;5038535;28;20868;-68
2024/01/10 03:09:43;;;;;;;19.50;14.07;;;;;;;-3.97;100.00;103111.50;5033491;28;20175;-69
2024/01/10 03:12:10;;;;;;;19.60;13.50;;;;;;;-4.51;100.00;103028.50;5037688;28;20195;-68
2024/01/10 03:14:36;;;;;;;21.23;15.10;;;;;;;-4.36;100.00;103079.56;5065642;28;20203;-69
2024/01/10 03:17:02;;;;;;;17.80;14.50;;;;;;;-4.65;100.00;102965.22;5047141;28;20458;-68
2024/01/10 03:19:27;;;;;;;19.17;14.50;;;;;;;-4.08;100.00;103048.09;5039458;28;20188;-68
2024/01/10 03:21:53;;;;;;;18.73;14.53;;;;;;;-4.92;100.00;102885.75;5027742;28;20438;-68
2024/01/10 03:24:19;;;;;;;19.95;15.93;;;;;;;-4.03;100.00;102998.13;5034109;28;20183;-69
2024/01/10 03:26:44;;;;;;;20.90;15.73;;;;;;;-3.93;100.00;102992.53;5027023;28;20197;-68
2024/01/10 03:29:10;;;;;;;21.10;14.93;;;;;;;-4.65;100.00;102958.22;5032355;28;20203;-68
2024/01/10 03:31:38;;;;;;;20.30;14.80;;;;;;;-3.89;100.00;103059.69;5073660;28;20266;-69
2024/01/10 03:34:03;;;;;;;21.30;15.20;;;;;;;-5.10;100.00;102825.25;5041033;28;20219;-69
2024/01/10 03:36:29;;;;;;;22.93;14.77;;;;;;;-4.62;100.00;102921.44;5041294;28;20481;-68
2024/01/10 03:38:54;;;;;;;20.50;14.23;;;;;;;-4.41;100.00;102963.56;5036190;28;20229;-68
2024/01/10 03:41:20;;;;;;;20.63;14.50;;;;;;;-3.90;100.00;103094.69;5041235;28;20190;-68
2024/01/10 03:43:46;;;;;;;20.17;13.50;;;;;;;-4.21;100.00;103080.84;5038755;28;20190;-69
2024/01/10 03:46:12;;;;;;;20.20;14.00;;;;;;;-4.41;100.00;102984.53;5039520;28;21017;-69
2024/01/10 03:48:47;;;;;;;32.53;15.50;;;;;;;-4.14;100.00;103027.31;5067553;28;20454;-68
2024/01/10 03:51:13;;;;;;;20.20;14.43;;;;;;;-4.48;100.00;102949.81;5071006;28;20434;-69
2024/01/10 03:53:38;;;;;;;19.57;14.90;;;;;;;-3.97;100.00;103045.97;5030530;28;20477;-67
2024/01/10 03:56:05;;;;;;;21.57;15.20;;;;;;;-4.19;100.00;103018.78;5034875;28;20188;-68
2024/01/10 03:58:30;;;;;;;19.50;14.27;;;;;;;-4.40;100.00;102971.38;5063330;28;20204;-68
2024/01/10 04:00:56;;;;;;;20.60;15.13;;;;;;;-4.52;100.00;102881.88;5036060;28;20673;-68
2024/01/10 04:03:21;;;;;;;19.00;14.57;;;;;;;-4.42;100.00;102897.22;5046362;28;20668;-68
2024/01/10 04:05:50;;;;;;;17.70;13.47;;;;;;;-4.19;100.00;102938.38;5044256;28;20181;-69
2024/01/10 04:08:15;;;;;;;19.53;14.03;;;;;;;-4.56;100.00;102902.06;5037935;28;20244;-69
2024/01/10 04:10:41;;;;;;;20.33;15.00;;;;;;;-4.56;100.00;102865.41;5040271;28;20441;-68
2024/01/10 04:13:06;;;;;;;17.67;14.10;;;;;;;-4.94;100.00;102816.94;5039934;28;20207;-68
2024/01/10 04:15:34;;;;;;;17.87;14.10;;;;;;;-5.14;100.00;102749.53;5042493;28;20183;-68
2024/01/10 04:18:00;;;;;;;19.57;15.43;;;;;;;-4.42;100.00;102939.16;5044472;28;20231;-69
2024/01/10 04:20:25;;;;;;;16.50;13.83;;;;;;;-4.57;100.00;102875.03;5038536;28;21831;-69
2024/01/10 04:22:51;;;;;;;19.53;14.00;;;;;;;-4.06;100.00;102970.25;5034989;28;24730;-68
2024/01/10 04:25:16;;;;;;;21.50;15.50;;;;;;;-4.87;100.00;102787.00;5029606;28;20180;-69
2024/01/10 04:27:41;;;;;;;18.67;14.50;;;;;;;-3.67;100.00;102938.34;5041042;28;20304;-68
2024/01/10 04:30:08;;;;;;;19.10;14.83;;;;;;;-3.86;100.00;102972.22;5035453;28;20817;-69
2024/01/10 04:32:35;;;;;;;18.57;14.10;;;;;;;-3.80;100.00;102963.28;5072451;28;20206;-68
2024/01/10 04:35:01;;;;;;;22.63;15.80;;;;;;;-4.01;100.00;102973.59;5038070;28;20512;-69
2024/01/10 04:37:26;;;;;;;19.03;14.90;;;;;;;-4.35;100.00;102910.97;5040070;28;20469;-68
2024/01/10 04:39:51;;;;;;;19.23;14.10;;;;;;;-4.46;100.00;102905.22;5040504;28;20228;-69
2024/01/10 04:42:17;;;;;;;19.60;14.23;;;;;;;-4.32;100.00;102939.69;5035389;28;20274;-68
2024/01/10 04:44:43;;;;;;;23.03;15.00;;;;;;;-4.96;100.00;102806.50;5038177;28;20203;-69
2024/01/10 04:47:09;;;;;;;21.90;14.47;;;;;;;-4.02;100.00;102971.88;5046461;28;20192;-68
2024/01/10 04:49:34;;;;;;;19.20;13.90;;;;;;;-3.83;100.00;102997.47;5032239;28;20256;-68
2024/01/10 04:52:00;;;;;;;18.77;13.73;;;;;;;-4.11;100.00;102966.94;5038455;28;20488;-68
2024/01/10 04:54:26;;;;;;;18.73;14.80;;;;;;;-4.89;100.00;102891.78;5034001;28;20211;-68
2024/01/10 04:56:51;;;;;;;19.07;14.67;;;;;;;-4.00;100.00;103027.72;5034398;28;20437;-68
2024/01/10 04:59:17;;;;;;;20.63;15.33;;;;;;;-4.77;100.00;102932.44;5038301;28;20215;-68
2024/01/10 05:01:42;;;;;;;19.20;15.10;;;;;;;-4.48;100.00;102935.84;5036586;28;20192;-68
2024/01/10 05:04:08;;;;;;;21.30;15.00;;;;;;;-4.24;100.00;103033.78;5038299;28;20195;-67
2024/01/10 05:06:33;;;;;;;18.33;14.13;;;;;;;-4.35;100.00;103036.72;5035990;28;20194;-69
2024/01/10 05:08:59;;;;;;;20.33;16.00;;;;;;;-4.61;100.00;103014.81;5035192;28;20261;-68
2024/01/10 05:11:25;;;;;;;21.40;15.17;;;;;;;-4.12;100.00;103056.97;5030311;28;20188;-68
2024/01/10 05:13:51;;;;;;;19.20;14.30;;;;;;;-4.17;100.00;103080.69;5033166;28;20942;-68
2024/01/10 05:16:17;;;;;;;19.70;14.40;;;;;;;-4.15;100.00;103064.94;5040806;28;20438;-68
2024/01/10 05:18:42;;;;;;;22.07;15.27;;;;;;;-4.17;100.00;103082.47;5034771;28;28149;-68
2024/01/10 05:21:08;;;;;;;18.37;15.30;;;;;;;-4.75;100.00;102985.56;5035304;28;20184;-68
2024/01/10 05:23:33;;;;;;;20.90;14.90;;;;;;;-5.18;100.00;102915.34;5035753;28;20184;-68
2024/01/10 05:25:59;;;;;;;20.23;15.50;;;;;;;-5.03;100.00;102957.63;5036288;28;20191;-67
2024/01/10 05:28:24;;;;;;;19.23;14.13;;;;;;;-4.73;100.00;102998.63;5038581;28;20231;-68
2024/01/10 05:30:50;;;;;;;19.20;14.87;;;;;;;-5.06;100.00;102965.59;5028979;28;20236;-69
2024/01/10 05:33:15;;;;;;;23.13;16.00;;;;;;;-4.38;100.00;103076.97;5038572;28;20572;-69
2024/01/10 05:35:42;;;;;;;21.83;16.37;;;;;;;-4.80;100.00;103004.06;5037704;28;20196;-68
2024/01/10 05:38:07;;;;;;;23.10;17.23;;;;;;;-4.36;100.00;103083.03;5062878;28;20211;-69
2024/01/10 05:40:32;;;;;;;23.43;16.43;;;;;;;-5.44;100.00;102906.50;5071497;28;20434;-68
2024/01/10 05:43:01;;;;;;;20.90;16.60;;;;;;;-4.31;100.00;103101.22;5042286;28;20196;-68
2024/01/10 05:45:28;;;;;;;25.40;15.70;;;;;;;-4.91;100.00;102994.81;5034992;28;20338;-69
2024/01/10 05:47:54;;;;;;;21.70;14.63;;;;;;;-4.77;100.00;103024.06;5042593;28;20470;-70
2024/01/10 05:50:19;;;;;;;19.60;13.93;;;;;;;-4.26;100.00;103107.19;5032489;28;20493;-68
2024/01/10 05:52:45;;;;;;;24.03;15.80;;;;;;;-4.73;100.00;103020.44;5037189;28;20532;-69
2024/01/10 05:55:10;;;;;;;21.90;15.90;;;;;;;-5.57;100.00;102929.56;5034308;28;20207;-71
2024/01/10 05:57:37;;;;;;;24.00;16.03;;;;;;;-4.68;100.00;103076.16;5030313;28;20207;-71
2024/01/10 06:00:04;;;;;;;20.80;15.20;;;;;;;-5.46;100.00;102969.34;5034029;28;20202;-68
2024/01/10 06:02:30;;;;;;;21.93;15.50;;;;;;;-4.69;100.00;103097.97;5031535;28;20439;-68
2024/01/10 06:04:55;;;;;;;21.70;15.27;;;;;;;-4.82;100.00;103094.03;5040160;28;20491;-68
2024/01/10 06:07:21;;;;;;;24.30;16.80;;;;;;;-4.58;100.00;103126.50;5041958;28;20281;-68
2024/01/10 06:09:47;;;;;;;23.40;15.20;;;;;;;-4.71;100.00;103112.06;5040182;28;20202;-71
2024/01/10 06:12:13;;;;;;;22.73;14.48;;;;;;;-4.51;100.00;103116.69;5041639;28;20183;-71
2024/01/10 06:14:38;;;;;;;26.00;16.23;;;;;;;-5.10;100.00;102990.09;5037829;28;20426;-70
2024/01/10 06:30:10;;;;;;;29.77;18.60;;;;;;;-5.07;100.00;103018.81;5120164;27;20552;-71
2024/01/10 06:32:36;;;;;;;31.20;18.70;;;;;;;-4.65;100.00;103104.88;5109886;27;20450;-70
2024/01/10 06:35:01;;;;;;;27.43;16.90;;;;;;;-4.37;100.00;103132.84;5111548;27;20204;-70
2024/01/10 06:37:28;;;;;;;27.17;16.27;;;;;;;-5.24;100.00;102946.06;5114626;28;20209;-71
2024/01/10 06:39:53;;;;;;;23.77;15.33;;;;;;;-4.93;100.00;103039.34;5093153;28;20208;-70
2024/01/10 06:42:19;;;;;;;28.77;17.10;;;;;;;-4.51;100.00;103099.22;5096491;28;20927;-70
2024/01/10 06:44:45;;;;;;;25.83;15.80;;;;;;;-4.71;100.00;103085.88;5089090;28;20186;-70
2024/01/10 06:47:11;;;;;;;26.50;16.30;;;;;;;-4.77;100.00;103102.63;5091781;28;20625;-70
2024/01/10 06:49:36;;;;;;;24.70;14.93;;;;;;;-4.69;100.00;103133.78;5092219;28;20460;-70
2024/01/10 06:52:02;;;;;;;26.60;15.70;;;;;;;-4.64;100.00;103143.25;5097910;28;20688;-70
2024/01/10 06:54:28;;;;;;;28.47;16.03;;;;;;;-4.46;100.00;103135.75;5091470;28;20183;-70
2024/01/10 06:56:53;;;;;;;25.73;14.93;;;;;;;-4.45;100.00;103159.28;5097115;28;20186;-70
2024/01/10 06:59:19;;;;;;;26.67;15.67;;;;;;;-5.75;100.00;102978.00;5094945;28;20209;-69
2024/01/10 07:01:45;;;;;;;26.63;16.50;;;;;;;-5.48;100.00;103002.50;5093936;28;20272;-70
2024/01/10 07:04:10;;;;;;;28.70;16.33;;;;;;;-4.57;100.00;103154.38;5090817;28;20445;-70
2024/01/10 07:06:36;;;;;;;26.93;16.33;;;;;;;-4.64;100.00;103158.94;5095532;28;20185;-70
2024/01/10 07:09:01;;;;;;;25.70;15.10;;;;;;;-4.63;100.00;103171.16;5092570;28;20206;-70
2024/01/10 07:11:28;;;;;;;22.33;14.00;;;;;;;-4.69;100.00;103157.38;5099495;28;20186;-70
2024/01/10 07:13:54;;;;;;;24.25;15.07;;;;;;;-4.67;100.00;103132.00;5090362;28;20186;-69
2024/01/10 07:16:20;;;;;;;24.53;14.87;;;;;;;-4.74;100.00;103119.97;5095918;28;20177;-70
2024/01/10 07:18:46;;;;;;;22.97;14.63;;;;;;;-4.84;100.00;103109.75;5093847;28;20221;-70
2024/01/10 07:21:11;;;;;;;27.70;17.00;;;;;;;-5.66;100.00;103010.03;5094574;28;20188;-70
2024/01/10 07:23:40;;;;;;;24.67;15.80;;;;;;;-4.91;100.00;103126.56;5097815;28;20684;-70
2024/01/10 07:26:06;;;;;;;29.57;16.47;;;;;;;-4.62;100.00;103167.63;5093438;28;20748;-70
2024/01/10 07:28:32;;;;;;;24.80;16.23;;;;;;;-5.06;100.00;103109.53;5093640;28;20464;-70
2024/01/10 07:30:58;;;;;;;24.80;15.90;;;;;;;-5.11;100.00;103111.41;5076708;28;20183;-70
2024/01/10 07:33:23;;;;;;;26.37;15.80;;;;;;;-4.74;100.00;103182.81;5082579;28;20509;-70
2024/01/10 07:35:49;;;;;;;23.90;14.93;;;;;;;-4.79;100.00;103164.63;5079090;28;20204;-69
2024/01/10 07:38:14;;;;;;;23.47;14.67;;;;;;;-4.65;100.00;103186.06;5071937;28;20206;-70
2024/01/10 07:40:40;;;;;;;23.90;14.37;;;;;;;-4.65;100.00;103193.91;5076310;28;20250;-70
2024/01/10 07:43:05;;;;;;;22.80;14.07;;;;;;;-5.34;100.00;103058.84;5078300;28;20197;-70
2024/01/10 07:45:30;;;;;;;19.00;12.73;;;;;;;-4.74;100.00;103120.84;5074672;28;20186;-70
2024/01/10 07:47:56;;;;;;;22.10;12.70;;;;;;;-5.06;100.00;103101.66;5074886;28;20214;-69
2024/01/10 07:50:24;;;;;;;23.73;13.43;;;;;;;-4.86;100.00;103092.38;5075613;28;20182;-70
2024/01/10 07:52:49;;;;;;;23.30;14.20;;;;;;;-5.52;100.00;103005.28;5077322;28;20830;-69
2024/01/10 07:55:15;;;;;;;22.07;13.60;;;;;;;-4.47;100.00;103184.66;5075718;28;20190;-70
2024/01/10 07:57:42;;;;;;;24.17;14.47;;;;;;;-5.06;100.00;103101.66;5078953;28;20202;-70
2024/01/10 08:00:10;;;;;;;24.13;14.87;;;;;;;-4.39;100.00;103180.06;5075861;28;21120;-70
2024/01/10 08:02:39;;;;;;;21.83;13.63;;;;;;;-5.32;100.00;103023.91;5081529;28;20440;-70
2024/01/10 08:05:10;;;;;;;24.50;14.82;;;;;;;-4.58;100.00;103174.50;5077808;28;20265;-70
2024/01/10 08:07:37;;;;;;;21.90;13.20;;;;;;;-4.41;100.00;103186.25;5077638;28;20207;-70
2024/01/10 08:10:06;;;;;;;27.63;16.05;;;;;;;-5.07;100.00;103094.69;5072219;28;20205;-70
2024/01/10 08:12:31;;;;;;;26.73;16.70;;;;;;;-5.18;100.00;103041.78;5076791;28;20556;-70
2024/01/10 08:14:57;;;;;;;22.53;15.10;;;;;;;-4.60;100.00;103134.41;5068315;28;20435;-70
2024/01/10 08:17:23;;;;;;;25.60;15.47;;;;;;;-4.32;100.00;103181.59;5073263;28;20233;-70
2024/01/10 08:19:49;;;;;;;24.63;15.03;;;;;;;-4.96;100.00;103073.47;5076089;28;20183;-70
2024/01/10 08:22:15;;;;;;;24.03;15.57;;;;;;;-4.98;100.00;103080.50;5076020;28;20240;-71
2024/01/10 08:24:41;;;;;;;22.77;15.15;;;;;;;-4.41;100.00;103208.06;5071183;28;20460;-70
2024/01/10 08:27:06;;;;;;;24.43;13.30;;;;;;;-5.01;100.00;103089.28;5079275;28;20255;-70
2024/01/10 08:29:31;;;;;;;22.43;13.80;;;;;;;-4.71;100.00;103157.44;5074767;28;20309;-70
2024/01/10 08:31:57;;;;;;;21.90;13.80;;;;;;;-4.55;100.00;103160.44;5072887;28;20193;-69
2024/01/10 08:34:24;;;;;;;24.40;14.57;;;;;;;-4.68;100.00;103169.56;5075756;28;20197;-71
2024/01/10 08:36:50;;;;;;;23.70;13.90;;;;;;;-4.32;100.00;103227.91;5082374;28;20429;-70
2024/01/10 08:39:16;;;;;;;24.37;14.80;;;;;;;-4.28;100.00;103212.94;5070564;28;20457;-71
2024/01/10 08:41:44;;;;;;;22.53;14.30;;;;;;;-4.39;100.00;103193.19;5074554;28;20986;-70
2024/01/10 08:44:10;;;;;;;22.17;13.65;;;;;;;-4.28;100.00;103199.84;5075157;28;20923;-70
2024/01/10 08:46:35;;;;;;;20.93;12.80;;;;;;;-4.29;100.00;103188.50;5074404;28;20186;-70
2024/01/10 08:49:01;;;;;;;22.50;14.10;;;;;;;-4.63;100.00;103104.81;5074167;28;20882;-68
2024/01/10 08:51:27;;;;;;;22.43;13.13;;;;;;;-4.77;100.00;103068.56;5075927;28;20531;-67
2024/01/10 08:53:52;;;;;;;22.80;14.10;;;;;;;-4.70;100.00;103077.09;5074738;28;20561;-70
2024/01/10 08:56:19;;;;;;;19.80;12.47;;;;;;;-4.21;100.00;103159.47;5078910;28;20654;-70
2024/01/10 08:58:45;;;;;;;19.80;12.68;;;;;;;-4.06;100.00;103168.63;5072827;28;20206;-70
2024/01/10 09:01:10;;;;;;;20.80;14.30;;;;;;;-3.92;100.00;103138.44;5076484;28;20183;-70
2024/01/10 09:03:37;;;;;;;21.97;14.37;;;;;;;-3.98;100.00;103103.72;5073406;28;20187;-70
2024/01/10 09:06:03;;;;;;;23.60;16.03;;;;;;;-3.81;100.00;103153.00;5069603;28;20202;-70
2024/01/10 09:08:30;;;;;;;25.30;14.67;;;;;;;-3.67;100.00;103150.78;5078834;28;20598;-70
2024/01/10 09:10:55;;;;;;;20.37;14.37;;;;;;;-3.67;100.00;103124.56;5071578;28;20435;-70
2024/01/10 09:13:20;;;;;;;22.87;12.73;;;;;;;-4.12;100.00;103041.25;5072333;28;20439;-71
2024/01/10 09:15:46;;;;;;;25.33;14.27;;;;;;;-3.64;100.00;103125.31;5072867;28;20194;-71
2024/01/10 09:18:11;;;;;;;20.87;12.30;;;;;;;-4.34;100.00;103000.00;5073561;28;20697;-70
2024/01/10 09:20:37;;;;;;;21.47;12.33;;;;;;;-3.51;100.00;103131.00;5074843;28;20183;-70
2024/01/10 09:23:03;;;;;;;21.63;12.53;;;;;;;-3.40;100.00;103149.00;5074040;28;20184;-70
2024/01/10 09:25:29;;;;;;;24.00;13.67;;;;;;;-3.42;100.00;103129.81;5085055;28;20436;-70
2024/01/10 09:27:55;;;;;;;22.20;11.83;;;;;;;-3.90;100.00;103092.06;5075123;28;20224;-70
2024/01/10 09:30:20;;;;;;;24.03;13.43;;;;;;;-3.37;100.00;103143.66;5079755;28;20519;-69
2024/01/10 09:32:46;;;;;;;22.67;13.40;;;;;;;-3.63;100.00;103053.56;5075735;28;20190;-70
2024/01/10 09:35:12;;;;;;;23.03;12.93;;;;;;;-3.59;100.00;103048.22;5072256;28;20179;-70
2024/01/10 09:37:38;;;;;;;22.73;13.03;;;;;;;-3.97;100.00;102990.91;5072671;28;20207;-70
2024/01/10 09:40:04;;;;;;;22.30;13.27;;;;;;;-3.15;100.00;103128.03;5075188;28;20928;-70
2024/01/10 09:42:31;;;;;;;20.60;12.50;;;;;;;-2.98;100.00;103138.81;5074707;28;20206;-70
2024/01/10 09:44:57;;;;;;;21.30;12.53;;;;;;;-2.81;100.00;103145.19;5075998;28;20432;-70
2024/01/10 09:47:23;;;;;;;23.40;12.93;;;;;;;-3.13;100.00;103120.94;5075678;28;20456;-70
2024/01/10 09:49:49;;;;;;;20.83;12.07;;;;;;;-2.79;100.00;103167.88;5073658;28;20479;-70
2024/01/10 09:52:25;;;;;;;22.20;13.53;;;;;;;-2.99;100.00;103130.97;5074513;28;20437;-70
2024/01/10 09:54:56;;;;;;;22.67;13.97;;;;;;;-2.80;100.00;103170.56;5073625;28;20277;-70
2024/01/10 09:57:23;;;;;;;19.50;12.07;;;;;;;-2.90;100.00;103169.19;5070283;28;20451;-70
2024/01/10 09:59:51;;;;;;;20.63;12.30;;;;;;;-3.20;100.00;103111.59;5075849;28;20447;-69
2024/01/10 10:02:18;;;;;;;24.97;14.63;;;;;;;-2.56;100.00;103189.84;5074513;28;20493;-70
2024/01/10 10:04:54;;;;;;;22.90;13.00;;;;;;;-2.48;100.00;103206.19;5070782;28;20475;-70
2024/01/10 10:07:19;;;;;;;23.20;12.67;;;;;;;-3.70;100.00;102983.88;5074229;28;20443;-70
2024/01/10 10:12:42;;;;;;;20.20;13.33;;;;;;;-2.11;100.00;103202.16;5064289;27;1491503;-68
2024/01/10 10:15:13;;;;;;;21.97;12.40;;;;;;;-3.02;100.00;103100.41;5089408;28;20519;-71
2024/01/10 10:17:45;;;;;;;23.10;13.07;;;;;;;-2.33;100.00;103225.78;5091748;28;20837;-70
2024/01/10 10:20:13;;;;;;;19.47;12.27;;;;;;;-2.30;100.00;103230.94;5094814;28;20812;-69
2024/01/10 10:22:39;;;;;;;21.17;12.40;;;;;;;-3.07;100.00;103088.38;5086480;28;20493;-69
2024/01/10 10:25:05;;;;;;;22.10;13.50;;;;;;;-2.52;100.00;103167.78;5077960;28;20428;-68
2024/01/10 10:27:30;;;;;;;22.10;13.50;;;;;;;-2.43;100.00;103174.47;5089359;28;20218;-69
2024/01/10 10:29:56;;;;;;;23.53;13.23;;;;;;;-2.57;100.00;103175.00;5072920;28;20440;-71
2024/01/10 10:32:21;;;;;;;24.53;13.27;;;;;;;-1.95;100.00;103245.38;5087070;28;20194;-71
2024/01/10 10:34:47;;;;;;;21.77;12.43;;;;;;;-2.29;100.00;103201.94;5080049;28;20205;-67
2024/01/10 10:37:12;;;;;;;20.43;11.87;;;;;;;-2.25;100.00;103231.63;5082707;28;20268;-72
2024/01/10 10:39:38;;;;;;;32.13;18.77;;;;;;;-2.87;100.00;103078.00;5079004;28;20236;-69
2024/01/10 10:42:04;;;;;;;24.37;15.63;;;;;;;-2.67;100.00;103110.56;5069895;28;20667;-68
2024/01/10 10:44:35;;;;;;;22.17;12.57;;;;;;;-1.66;100.00;103261.84;5089220;28;20190;-68
2024/01/10 10:47:05;;;;;;;21.33;12.70;;;;;;;-2.08;100.00;103202.09;5067454;28;20436;-69
2024/01/10 10:49:31;;;;;;;20.93;12.87;;;;;;;-1.65;100.00;103258.28;5073312;28;20954;-67
2024/01/10 10:51:59;;;;;;;22.77;12.47;;;;;;;-2.02;100.00;103187.84;5069515;28;20433;-68
2024/01/10 10:54:29;;;;;;;20.33;11.93;;;;;;;-1.47;100.00;103275.13;5085823;28;20428;-68
2024/01/10 10:56:57;;;;;;;20.53;11.53;;;;;;;-1.99;100.00;103175.41;5082414;28;20478;-68
2024/01/10 10:59:26;;;;;;;18.90;11.60;;;;;;;-1.66;100.00;103138.16;5082915;28;20440;-68
2024/01/10 11:01:53;;;;;;;21.50;12.00;;;;;;;-1.36;100.00;103193.94;5066027;28;20526;-71
2024/01/10 11:04:21;;;;;;;21.70;11.83;;;;;;;-1.32;100.00;103187.63;5091268;28;21260;-71
2024/01/10 11:06:46;;;;;;;18.87;11.40;;;;;;;-1.09;100.00;103228.81;5080884;28;20444;-72
2024/01/10 11:09:17;;;;;;;22.10;11.90;;;;;;;-2.30;100.00;103005.72;5088139;28;20448;-69
2024/01/10 11:12:08;;;;;;;19.60;11.10;;;;;;;-1.29;100.00;103187.50;5083689;28;20205;-71